»·PEaware :: N51254 KBFL-KMHV

N51254 :: KBFL-KMHV

FLIGHT INFORMATION

Flight Status: Arrived
Operator: Privately registered:
United States
More flights under this callsign
Pilot: Hasan B. (9605)
Aircraft: CESSNA 172 SKYHAWK
(C172)
More flights by this aircraft type
Origin: KBFL Meadows
United States
Destination: KMHV Mojave
United States
More flights between these airports :: More routes between these airports
Route: +
File this flight plan on PilotEdge
Remarks:
Altitude:
(Current/Filed)
0ft
Speed:
(Current/Filed)
0kts
Departed: 02-Oct-18 11:05 AM
Arrived: 02-Oct-18 11:52 AM
Distance/Time
Traveled:
49nm/0:47
Distance/Time
To Go:
Arrived

Flight Plot

Page will automatically refresh every two minutes.


Map Options




Map Legend


Flown Route
Filed Route
Departure Airport
Arrival Airport
Navaid (VOR, NDB)
Fix

Horizontal Profiles

Position Reports

Time Latitude Longitude Heading Altitude Ground
Speed
02-Oct-18 10:58 35.424678 -119.052462 22 464ft 0kts
02-Oct-18 10:59 35.424678 -119.052462 22 464ft 0kts
02-Oct-18 11:00 35.424679 -119.052459 39 464ft 0kts
02-Oct-18 11:01 35.424075 -119.051941 100 464ft 5kts
02-Oct-18 11:02 35.424023 -119.048798 99 467ft 22kts
02-Oct-18 11:03 35.424084 -119.047066 44 469ft 0kts
02-Oct-18 11:04 35.424590 -119.046453 42 472ft 0kts
02-Oct-18 11:05 35.424590 -119.046453 42 472ft 0kts
02-Oct-18 11:06 35.424590 -119.046453 42 472ft 0kts
02-Oct-18 11:07 35.428414 -119.049566 316 484ft 70kts
02-Oct-18 11:08 35.441030 -119.064046 320 1040ft 86kts
02-Oct-18 11:09 35.457791 -119.073445 1 1671ft 87kts
02-Oct-18 11:10 35.467346 -119.057681 87 2284ft 85kts
02-Oct-18 11:11 35.460665 -119.039392 123 2778ft 91kts
02-Oct-18 11:12 35.451582 -119.021072 121 3257ft 93kts
02-Oct-18 11:13 35.442156 -119.003241 122 3717ft 93kts
02-Oct-18 11:14 35.432671 -118.985563 124 4157ft 94kts
02-Oct-18 11:15 35.421941 -118.968621 132 4582ft 94kts
02-Oct-18 11:16 35.408844 -118.954740 137 4976ft 96kts
02-Oct-18 11:17 35.397060 -118.942514 136 5266ft 98kts
02-Oct-18 11:18 35.382844 -118.927783 137 5526ft 104kts
02-Oct-18 11:19 35.365949 -118.909668 136 5939ft 98kts
02-Oct-18 11:20 35.350787 -118.893160 141 6333ft 98kts
02-Oct-18 11:21 35.334818 -118.877459 139 6736ft 96kts
02-Oct-18 11:22 35.321491 -118.863274 136 7009ft 101kts
02-Oct-18 11:23 35.313307 -118.841323 100 7266ft 105kts
02-Oct-18 11:24 35.310932 -118.816381 93 7554ft 105kts
02-Oct-18 11:25 35.308857 -118.790653 98 7634ft 112kts
02-Oct-18 11:26 35.304580 -118.764332 102 7656ft 118kts
02-Oct-18 11:27 35.299032 -118.738605 106 7516ft 114kts
02-Oct-18 11:28 35.291903 -118.712767 110 7411ft 112kts
02-Oct-18 11:29 35.283445 -118.688832 114 7514ft 106kts
02-Oct-18 11:30 35.268617 -118.649704 115 7569ft 106kts
02-Oct-18 11:31 35.249458 -118.603732 118 7553ft 108kts
02-Oct-18 11:32 35.230980 -118.556498 115 7524ft 110kts
02-Oct-18 11:33 35.220825 -118.533251 118 7430ft 114kts
02-Oct-18 11:34 35.209692 -118.510277 121 7425ft 109kts
02-Oct-18 11:35 35.198916 -118.488081 119 7486ft 105kts
02-Oct-18 11:36 35.189157 -118.466228 115 7466ft 110kts
02-Oct-18 11:37 35.179394 -118.443886 120 7545ft 104kts
02-Oct-18 11:38 35.168854 -118.423860 123 7549ft 107kts
02-Oct-18 11:39 35.157505 -118.404766 124 7577ft 107kts
02-Oct-18 11:40 35.146572 -118.384029 123 7611ft 105kts
02-Oct-18 11:41 35.136598 -118.364130 117 7206ft 104kts
02-Oct-18 11:42 35.128311 -118.344050 117 6653ft 118kts
02-Oct-18 11:43 35.119668 -118.319575 108 6272ft 107kts
02-Oct-18 11:44 35.112286 -118.297074 110 5921ft 102kts
02-Oct-18 11:45 35.108011 -118.274101 97 5576ft 102kts
02-Oct-18 11:46 35.106034 -118.251393 97 5270ft 98kts
02-Oct-18 11:47 35.103875 -118.227885 94 4891ft 102kts
02-Oct-18 11:48 35.101849 -118.202858 97 4474ft 105kts
02-Oct-18 11:49 35.097964 -118.178880 105 4073ft 107kts
02-Oct-18 11:50 35.093561 -118.154602 102 3806ft 100kts
02-Oct-18 11:51 35.083559 -118.138718 143 3741ft 79kts
02-Oct-18 11:52 35.074543 -118.141026 240 3261ft 78kts
02-Oct-18 11:53 35.066619 -118.153667 232 2795ft 63kts
02-Oct-18 11:54 35.061926 -118.160915 230 2778ft 20kts
02-Oct-18 11:55 35.060169 -118.163637 238 2777ft 0kts
02-Oct-18 11:56 35.060037 -118.163839 229 2777ft 0kts
02-Oct-18 11:57 35.058490 -118.165145 138 2776ft 16kts
02-Oct-18 11:58 35.057257 -118.163115 41 2770ft 0kts
02-Oct-18 11:59 35.057257 -118.163115 41 2770ft 0kts

Navigation Log

Ident Type
1. KBFL Airport
2. KMHV Airport